Time;durP1;ratioP1;P1;durP2;ratioP2;P2;SDS_P1;SDS_P2;PMS_P1;PMS_P2;Temp;Humidity;BMP_temperature;BMP_pressure;BME280_temperature;BME280_humidity;BME280_pressure;Samples;Min_cycle;Max_cycle;Signal;HPM_P1;HPM_P2
2023/10/25 00:00:29;;;;;;;;;;;19.30;53.50;;;;;;5050711;28;19928;-68
2023/10/25 00:02:56;;;;;;;;;;;19.30;53.40;;;;;;5044879;28;19931;-69
2023/10/25 00:05:22;;;;;;;;;;;19.30;53.40;;;;;;5049889;28;19956;-67
2023/10/25 00:07:49;;;;;;;;;;;19.30;53.40;;;;;;5045715;28;19935;-63
2023/10/25 00:10:18;;;;;;;;;;;19.30;53.40;;;;;;5042328;28;19979;-68
2023/10/25 00:12:45;;;;;;;;;;;19.30;53.40;;;;;;5047560;28;20023;-68
2023/10/25 00:15:11;;;;;;;;;;;19.30;53.40;;;;;;5039839;28;20314;-67
2023/10/25 00:17:38;;;;;;;;;;;19.30;53.40;;;;;;5050300;28;19970;-67
2023/10/25 00:20:06;;;;;;;;;;;19.30;53.40;;;;;;5040366;28;19929;-67
2023/10/25 00:22:32;;;;;;;;;;;19.30;53.40;;;;;;5035652;28;19925;-68
2023/10/25 00:24:59;;;;;;;;;;;19.30;53.30;;;;;;5048225;28;19921;-66
2023/10/25 00:27:27;;;;;;;;;;;19.30;53.30;;;;;;5049360;28;19952;-68
2023/10/25 00:29:54;;;;;;;;;;;19.20;53.30;;;;;;5048628;28;19921;-66
2023/10/25 00:32:21;;;;;;;;;;;19.30;53.30;;;;;;5049816;28;19927;-68
2023/10/25 00:34:47;;;;;;;;;;;19.30;53.40;;;;;;5050605;28;19925;-63
2023/10/25 00:37:14;;;;;;;;;;;19.20;53.20;;;;;;5042617;28;19986;-69
2023/10/25 00:39:41;;;;;;;;;;;19.30;53.30;;;;;;5049457;28;19921;-68
2023/10/25 00:42:08;;;;;;;;;;;19.30;53.30;;;;;;5048608;28;19940;-67
2023/10/25 00:44:36;;;;;;;;;;;19.30;53.30;;;;;;5047848;28;19921;-68
2023/10/25 00:47:03;;;;;;;;;;;19.20;53.20;;;;;;5050466;28;19967;-69
2023/10/25 00:49:30;;;;;;;;;;;19.30;53.20;;;;;;5049918;28;19924;-67
2023/10/25 00:51:56;;;;;;;;;;;19.20;53.10;;;;;;5049059;28;19929;-68
2023/10/25 00:54:23;;;;;;;;;;;19.20;53.10;;;;;;5043604;28;19925;-67
2023/10/25 00:56:50;;;;;;;;;;;19.20;53.20;;;;;;5041806;28;19944;-65
2023/10/25 00:59:17;;;;;;;;;;;19.20;53.10;;;;;;5047701;28;19929;-68
2023/10/25 01:01:45;;;;;;;;;;;19.20;53.10;;;;;;5049467;28;19924;-66
2023/10/25 01:04:11;;;;;;;;;;;19.20;53.10;;;;;;5049053;28;19920;-68
2023/10/25 01:06:38;;;;;;;;;;;19.20;53.10;;;;;;5047528;28;19921;-68
2023/10/25 01:09:05;;;;;;;;;;;19.20;53.10;;;;;;5048750;28;19984;-67
2023/10/25 01:11:32;;;;;;;;;;;19.20;53.00;;;;;;5048032;28;19946;-66
2023/10/25 01:14:02;;;;;;;;;;;19.20;53.00;;;;;;5048577;28;19971;-67
2023/10/25 01:16:29;;;;;;;;;;;19.20;53.00;;;;;;5049545;28;19936;-67
2023/10/25 01:18:57;;;;;;;;;;;19.20;53.00;;;;;;5050168;28;19928;-68
2023/10/25 01:21:24;;;;;;;;;;;19.20;53.00;;;;;;5051218;28;19999;-65
2023/10/25 01:23:53;;;;;;;;;;;19.20;53.00;;;;;;5049952;28;19931;-67
2023/10/25 01:26:20;;;;;;;;;;;19.20;52.90;;;;;;5037210;28;20321;-67
2023/10/25 01:28:47;;;;;;;;;;;19.20;52.90;;;;;;5040937;28;20379;-67
2023/10/25 01:31:14;;;;;;;;;;;19.20;52.90;;;;;;5048678;28;19943;-68
2023/10/25 01:33:41;;;;;;;;;;;19.20;52.90;;;;;;5045376;28;19943;-67
2023/10/25 01:36:08;;;;;;;;;;;19.20;52.90;;;;;;5049527;28;20267;-67
2023/10/25 01:38:35;;;;;;;;;;;19.20;52.90;;;;;;5044524;28;19921;-67
2023/10/25 01:41:03;;;;;;;;;;;19.20;52.90;;;;;;5049697;28;19920;-67
2023/10/25 01:43:30;;;;;;;;;;;19.20;52.90;;;;;;5045527;28;19921;-67
2023/10/25 01:45:57;;;;;;;;;;;19.20;52.90;;;;;;5046797;28;19920;-66
2023/10/25 01:48:23;;;;;;;;;;;19.20;52.90;;;;;;5047299;28;19921;-67
2023/10/25 01:50:52;;;;;;;;;;;19.20;52.90;;;;;;5049290;28;19952;-65
2023/10/25 01:53:19;;;;;;;;;;;19.20;52.90;;;;;;5049663;28;19975;-67
2023/10/25 01:55:48;;;;;;;;;;;19.20;52.80;;;;;;5049454;28;19920;-67
2023/10/25 01:58:16;;;;;;;;;;;19.20;52.80;;;;;;5038586;28;19925;-69
2023/10/25 02:00:43;;;;;;;;;;;19.20;52.80;;;;;;5044431;28;19920;-68
2023/10/25 02:03:10;;;;;;;;;;;19.20;52.80;;;;;;5053494;28;19925;-68
2023/10/25 02:05:37;;;;;;;;;;;19.20;52.80;;;;;;5053945;28;19921;-67
2023/10/25 02:08:04;;;;;;;;;;;19.20;52.80;;;;;;5050382;28;19928;-66
2023/10/25 02:10:30;;;;;;;;;;;19.20;52.80;;;;;;5053763;28;19921;-66
2023/10/25 02:12:57;;;;;;;;;;;19.10;52.70;;;;;;5053625;28;19931;-67
2023/10/25 02:15:25;;;;;;;;;;;19.10;52.70;;;;;;5053390;28;19928;-68
2023/10/25 02:17:52;;;;;;;;;;;19.10;52.70;;;;;;5050014;28;19952;-68
2023/10/25 02:20:19;;;;;;;;;;;19.20;52.80;;;;;;5050133;28;19921;-67
2023/10/25 02:22:45;;;;;;;;;;;19.10;52.70;;;;;;5033113;28;19925;-68
2023/10/25 02:25:12;;;;;;;;;;;19.10;52.60;;;;;;5044146;28;19925;-69
2023/10/25 02:27:39;;;;;;;;;;;19.10;52.60;;;;;;5051882;28;19921;-67
2023/10/25 02:30:06;;;;;;;;;;;19.10;52.60;;;;;;5052820;28;19921;-69
2023/10/25 02:32:35;;;;;;;;;;;19.10;52.60;;;;;;5049742;28;20379;-68
2023/10/25 02:35:02;;;;;;;;;;;19.10;52.60;;;;;;5053639;28;19925;-68
2023/10/25 02:37:29;;;;;;;;;;;19.10;52.60;;;;;;5053143;28;19994;-66
2023/10/25 02:39:55;;;;;;;;;;;19.10;52.60;;;;;;5054120;28;19948;-68
2023/10/25 02:42:22;;;;;;;;;;;19.10;52.60;;;;;;5050178;28;19986;-69
2023/10/25 02:44:49;;;;;;;;;;;19.10;52.60;;;;;;5052940;28;19924;-67
2023/10/25 02:47:16;;;;;;;;;;;19.10;52.60;;;;;;5053258;28;19932;-67
2023/10/25 02:49:44;;;;;;;;;;;19.10;52.60;;;;;;5048589;28;19927;-66
2023/10/25 02:52:11;;;;;;;;;;;19.10;52.60;;;;;;5053467;28;19946;-68
2023/10/25 02:54:37;;;;;;;;;;;19.10;52.50;;;;;;5053206;28;19928;-67
2023/10/25 02:57:04;;;;;;;;;;;19.10;52.60;;;;;;5052808;28;19935;-67
2023/10/25 02:59:31;;;;;;;;;;;19.10;52.50;;;;;;5049394;28;19928;-67
2023/10/25 03:01:58;;;;;;;;;;;19.10;52.50;;;;;;5051523;28;19960;-68
2023/10/25 03:04:24;;;;;;;;;;;19.10;52.50;;;;;;5052094;28;19920;-68
2023/10/25 03:06:52;;;;;;;;;;;19.10;52.50;;;;;;5050735;28;19976;-63
2023/10/25 03:09:19;;;;;;;;;;;19.10;52.50;;;;;;5046847;28;19921;-67
2023/10/25 03:11:46;;;;;;;;;;;19.10;52.50;;;;;;5052605;28;19990;-67
2023/10/25 03:14:13;;;;;;;;;;;19.10;52.50;;;;;;5052286;28;19924;-68
2023/10/25 03:16:39;;;;;;;;;;;19.10;52.50;;;;;;5051040;28;19928;-69
2023/10/25 03:19:06;;;;;;;;;;;19.10;52.50;;;;;;5053021;28;19921;-68
2023/10/25 03:21:33;;;;;;;;;;;19.10;52.50;;;;;;5053783;28;19921;-69
2023/10/25 03:24:02;;;;;;;;;;;19.10;52.50;;;;;;5052951;28;19947;-68
2023/10/25 03:26:29;;;;;;;;;;;19.10;52.50;;;;;;5052776;28;19925;-68
2023/10/25 03:28:57;;;;;;;;;;;19.10;52.50;;;;;;5053986;28;19955;-67
2023/10/25 03:31:24;;;;;;;;;;;19.10;52.50;;;;;;5052042;28;19955;-67
2023/10/25 03:33:50;;;;;;;;;;;19.10;52.40;;;;;;5052002;28;19921;-66
2023/10/25 03:36:17;;;;;;;;;;;19.10;52.40;;;;;;5040917;28;19921;-68
2023/10/25 03:38:44;;;;;;;;;;;19.10;52.40;;;;;;5048118;28;19966;-65
2023/10/25 03:41:12;;;;;;;;;;;19.10;52.40;;;;;;5050799;28;19964;-68
2023/10/25 03:43:39;;;;;;;;;;;19.10;52.40;;;;;;5052111;28;19924;-68
2023/10/25 03:46:06;;;;;;;;;;;19.10;52.40;;;;;;5051726;28;19928;-69
2023/10/25 03:48:31;;;;;;;;;;;19.10;52.40;;;;;;5047468;28;19920;-68
2023/10/25 03:50:58;;;;;;;;;;;19.10;52.30;;;;;;5045822;28;19933;-69
2023/10/25 03:53:25;;;;;;;;;;;19.10;52.30;;;;;;5051677;28;19983;-68
2023/10/25 03:55:55;;;;;;;;;;;19.10;52.30;;;;;;5050739;28;19921;-63
2023/10/25 03:58:24;;;;;;;;;;;19.10;52.30;;;;;;5041158;28;20570;-67
2023/10/25 04:00:57;;;;;;;;;;;19.10;52.20;;;;;;5043241;28;20267;-67
2023/10/25 04:03:24;;;;;;;;;;;19.10;52.20;;;;;;5051537;28;19920;-68
2023/10/25 04:05:50;;;;;;;;;;;19.10;52.80;;;;;;5051717;28;19928;-66
2023/10/25 04:08:17;;;;;;;;;;;19.10;52.20;;;;;;5051087;28;19925;-68
2023/10/25 04:10:49;;;;;;;;;;;19.00;52.10;;;;;;5037884;28;19927;-65
2023/10/25 04:13:15;;;;;;;;;;;19.10;52.20;;;;;;5039177;28;19925;-68
2023/10/25 04:15:43;;;;;;;;;;;19.10;52.20;;;;;;5051681;28;19925;-66
2023/10/25 04:18:11;;;;;;;;;;;19.10;52.20;;;;;;5051088;28;19990;-68
2023/10/25 04:20:37;;;;;;;;;;;19.10;52.20;;;;;;5051304;28;19931;-68
2023/10/25 04:23:04;;;;;;;;;;;19.10;52.20;;;;;;5048770;28;20356;-66
2023/10/25 04:25:31;;;;;;;;;;;19.10;52.10;;;;;;5038291;28;19928;-67
2023/10/25 04:27:58;;;;;;;;;;;19.10;52.10;;;;;;5049254;28;19925;-66
2023/10/25 04:30:25;;;;;;;;;;;19.10;52.20;;;;;;5047122;28;20008;-66
2023/10/25 04:32:53;;;;;;;;;;;19.10;52.10;;;;;;5048611;28;19982;-68
2023/10/25 04:35:20;;;;;;;;;;;19.10;52.10;;;;;;5050195;28;19967;-69
2023/10/25 04:37:47;;;;;;;;;;;19.00;52.00;;;;;;5047887;28;19995;-66
2023/10/25 04:40:13;;;;;;;;;;;19.10;52.00;;;;;;5050197;28;19931;-68
2023/10/25 04:42:40;;;;;;;;;;;19.10;52.00;;;;;;5049147;28;19929;-68
2023/10/25 04:45:07;;;;;;;;;;;19.00;51.90;;;;;;5051627;28;19964;-68
2023/10/25 04:47:34;;;;;;;;;;;19.10;52.00;;;;;;5049161;28;20023;-65
2023/10/25 04:50:04;;;;;;;;;;;19.00;51.90;;;;;;5051629;28;19974;-68
2023/10/25 04:52:31;;;;;;;;;;;19.00;51.90;;;;;;5050619;28;19920;-67
2023/10/25 04:54:58;;;;;;;;;;;19.00;51.90;;;;;;5050693;28;19947;-65
2023/10/25 04:57:25;;;;;;;;;;;19.00;51.80;;;;;;5051846;28;19951;-67
2023/10/25 04:59:52;;;;;;;;;;;19.00;51.80;;;;;;5049926;28;20015;-67
2023/10/25 05:02:19;;;;;;;;;;;19.00;51.80;;;;;;5045648;28;19994;-66
2023/10/25 05:04:46;;;;;;;;;;;19.00;51.80;;;;;;5051395;28;19939;-68
2023/10/25 05:07:15;;;;;;;;;;;19.00;51.80;;;;;;5049021;28;19952;-67
2023/10/25 05:09:42;;;;;;;;;;;19.00;51.70;;;;;;5050119;28;19920;-68
2023/10/25 05:12:09;;;;;;;;;;;19.00;52.30;;;;;;5051197;28;19925;-69
2023/10/25 05:14:36;;;;;;;;;;;19.00;51.70;;;;;;5050264;28;19920;-69
2023/10/25 05:17:05;;;;;;;;;;;19.00;51.70;;;;;;5049454;28;19959;-67
2023/10/25 05:19:32;;;;;;;;;;;19.00;52.30;;;;;;5040523;28;19928;-68
2023/10/25 05:22:00;;;;;;;;;;;19.00;51.70;;;;;;5048298;28;19921;-65
2023/10/25 05:24:28;;;;;;;;;;;19.00;51.70;;;;;;5048844;28;19975;-68
2023/10/25 05:26:55;;;;;;;;;;;19.00;51.60;;;;;;5048831;28;19978;-67
2023/10/25 05:29:22;;;;;;;;;;;19.00;51.60;;;;;;5049332;28;19921;-69
2023/10/25 05:31:49;;;;;;;;;;;19.00;51.60;;;;;;5049163;28;19990;-67
2023/10/25 05:34:16;;;;;;;;;;;19.00;51.60;;;;;;5044624;28;19925;-66
2023/10/25 05:36:43;;;;;;;;;;;19.00;51.60;;;;;;5050034;28;19924;-66
2023/10/25 05:39:10;;;;;;;;;;;19.00;51.60;;;;;;5051862;28;19925;-68
2023/10/25 05:41:40;;;;;;;;;;;19.00;51.60;;;;;;5053820;28;19924;-68
2023/10/25 05:44:07;;;;;;;;;;;19.00;51.60;;;;;;5052665;28;19975;-68
2023/10/25 05:46:34;;;;;;;;;;;19.00;51.60;;;;;;5053277;28;19927;-69
2023/10/25 05:49:01;;;;;;;;;;;19.00;51.60;;;;;;5053594;28;19928;-68
2023/10/25 05:51:28;;;;;;;;;;;19.00;51.60;;;;;;5052605;28;20625;-67
2023/10/25 05:53:55;;;;;;;;;;;19.00;52.20;;;;;;5053297;28;19962;-69
2023/10/25 05:56:25;;;;;;;;;;;19.00;51.60;;;;;;5051865;28;19924;-67
2023/10/25 05:58:54;;;;;;;;;;;19.00;51.60;;;;;;5051661;28;19927;-68
2023/10/25 06:01:22;;;;;;;;;;;19.00;51.60;;;;;;5052748;28;19925;-68
2023/10/25 06:03:49;;;;;;;;;;;19.00;51.60;;;;;;5054424;28;20321;-66
2023/10/25 06:06:16;;;;;;;;;;;19.00;51.60;;;;;;5053450;28;19928;-68
2023/10/25 06:08:43;;;;;;;;;;;19.00;51.60;;;;;;5053739;28;19943;-69
2023/10/25 06:11:10;;;;;;;;;;;19.00;51.60;;;;;;5050595;28;19937;-66
2023/10/25 06:13:37;;;;;;;;;;;19.00;51.60;;;;;;5052892;28;20042;-68
2023/10/25 06:16:06;;;;;;;;;;;19.00;51.60;;;;;;5046423;28;19925;-67
2023/10/25 06:18:32;;;;;;;;;;;19.00;51.60;;;;;;5047946;28;19925;-68
2023/10/25 06:20:59;;;;;;;;;;;19.00;51.60;;;;;;5051204;28;19921;-67
2023/10/25 06:23:26;;;;;;;;;;;19.00;51.60;;;;;;5049177;28;20022;-67
2023/10/25 06:25:53;;;;;;;;;;;19.00;51.60;;;;;;5052898;28;19921;-67
2023/10/25 06:28:19;;;;;;;;;;;19.00;51.50;;;;;;5052768;28;19933;-67
2023/10/25 06:30:46;;;;;;;;;;;19.00;51.50;;;;;;5054241;28;20531;-68
2023/10/25 06:33:14;;;;;;;;;;;19.00;51.50;;;;;;5050820;28;19925;-69
2023/10/25 06:35:41;;;;;;;;;;;19.00;51.50;;;;;;5032818;28;19979;-68
2023/10/25 06:38:09;;;;;;;;;;;19.00;51.50;;;;;;5044122;28;19928;-65
2023/10/25 06:40:36;;;;;;;;;;;19.00;51.30;;;;;;5052540;28;19927;-69
2023/10/25 06:43:03;;;;;;;;;;;19.00;51.30;;;;;;5052836;28;19924;-72
2023/10/25 06:45:30;;;;;;;;;;;19.00;51.40;;;;;;5053544;28;19921;-72
2023/10/25 06:47:57;;;;;;;;;;;19.00;51.40;;;;;;5054293;28;19924;-73
2023/10/25 06:50:26;;;;;;;;;;;19.00;51.40;;;;;;5052231;28;19925;-75
2023/10/25 06:52:53;;;;;;;;;;;19.00;51.50;;;;;;5052707;28;19974;-71
2023/10/25 06:55:20;;;;;;;;;;;19.00;51.50;;;;;;5052151;28;19979;-69
2023/10/25 06:57:48;;;;;;;;;;;19.00;51.50;;;;;;5054316;28;19928;-72
2023/10/25 07:00:15;;;;;;;;;;;19.00;51.50;;;;;;5045447;28;19974;-71
2023/10/25 07:02:44;;;;;;;;;;;19.00;51.50;;;;;;5052924;28;19928;-73
2023/10/25 07:05:11;;;;;;;;;;;19.00;51.50;;;;;;5032067;28;19965;-72
2023/10/25 07:07:39;;;;;;;;;;;19.00;51.50;;;;;;5048852;28;20483;-78
2023/10/25 07:10:08;;;;;;;;;;;19.00;51.50;;;;;;5050966;28;19928;-69
2023/10/25 07:12:35;;;;;;;;;;;19.00;51.50;;;;;;5038660;28;19928;-72
2023/10/25 07:15:01;;;;;;;;;;;19.00;51.50;;;;;;5050442;28;19928;-72
2023/10/25 07:17:28;;;;;;;;;;;19.00;51.50;;;;;;5053464;28;19924;-69
2023/10/25 07:19:55;;;;;;;;;;;19.00;51.50;;;;;;5051988;28;20007;-73
2023/10/25 07:22:22;;;;;;;;;;;19.00;51.50;;;;;;5053530;28;19978;-71
2023/10/25 07:24:50;;;;;;;;;;;19.00;51.50;;;;;;5049763;28;19927;-63
2023/10/25 07:27:17;;;;;;;;;;;19.00;51.50;;;;;;5065840;28;20362;-75
2023/10/25 07:29:43;;;;;;;;;;;19.00;51.50;;;;;;5048550;28;19951;-73
2023/10/25 07:32:10;;;;;;;;;;;19.00;51.50;;;;;;5051283;28;19929;-75
2023/10/25 07:34:37;;;;;;;;;;;19.00;51.60;;;;;;5051785;28;19927;-73
2023/10/25 07:37:04;;;;;;;;;;;19.00;51.60;;;;;;5044323;28;19959;-65
2023/10/25 07:39:31;;;;;;;;;;;19.10;51.60;;;;;;5051551;28;19924;-68
2023/10/25 07:42:01;;;;;;;;;;;19.10;51.70;;;;;;5052440;28;19928;-77
2023/10/25 07:44:27;;;;;;;;;;;19.10;51.70;;;;;;5050786;28;19921;-72
2023/10/25 07:46:54;;;;;;;;;;;19.00;51.60;;;;;;5046380;28;19953;-74
2023/10/25 07:49:21;;;;;;;;;;;19.10;51.70;;;;;;5043611;28;19921;-71
2023/10/25 07:51:48;;;;;;;;;;;19.10;51.80;;;;;;5050913;28;19921;-72
2023/10/25 07:54:14;;;;;;;;;;;19.00;51.60;;;;;;5046455;28;19951;-73
2023/10/25 07:56:41;;;;;;;;;;;19.10;51.80;;;;;;5050420;28;19921;-72
2023/10/25 07:59:10;;;;;;;;;;;19.10;51.80;;;;;;5039987;28;19947;-76
2023/10/25 08:01:37;;;;;;;;;;;19.10;51.80;;;;;;5048348;28;19925;-75
2023/10/25 08:04:05;;;;;;;;;;;19.10;51.80;;;;;;5048714;28;19925;-75
2023/10/25 08:06:31;;;;;;;;;;;19.10;51.80;;;;;;5050296;28;19920;-74
2023/10/25 08:08:58;;;;;;;;;;;19.10;51.90;;;;;;5043549;28;19920;-74
2023/10/25 08:11:25;;;;;;;;;;;19.10;51.90;;;;;;5051259;28;19924;-69
2023/10/25 08:13:52;;;;;;;;;;;19.10;51.90;;;;;;5050084;28;19921;-69
2023/10/25 08:16:20;;;;;;;;;;;19.10;51.90;;;;;;5047112;28;19927;-79
2023/10/25 08:18:47;;;;;;;;;;;19.10;52.50;;;;;;5047193;28;20254;-73
2023/10/25 08:21:14;;;;;;;;;;;19.10;51.90;;;;;;5049078;28;19928;-69
2023/10/25 08:23:40;;;;;;;;;;;19.20;52.00;;;;;;5049892;28;19924;-71
2023/10/25 08:26:07;;;;;;;;;;;19.10;51.90;;;;;;5049926;28;19928;-59
2023/10/25 08:28:34;;;;;;;;;;;19.20;52.00;;;;;;5046272;28;19924;-57
2023/10/25 08:31:01;;;;;;;;;;;19.10;52.00;;;;;;5043955;28;19928;-57
2023/10/25 08:33:29;;;;;;;;;;;19.20;52.10;;;;;;5050390;28;19971;-59
2023/10/25 08:36:02;;;;;;;;;;;19.20;52.10;;;;;;5045554;28;19920;-58
2023/10/25 08:38:29;;;;;;;;;;;19.20;52.10;;;;;;5047493;28;19988;-57
2023/10/25 08:41:01;;;;;;;;;;;19.20;52.10;;;;;;5050623;28;19920;-58
2023/10/25 08:43:27;;;;;;;;;;;19.30;52.20;;;;;;5049991;28;19921;-58
2023/10/25 08:45:56;;;;;;;;;;;19.30;52.20;;;;;;5047852;28;19925;-58
2023/10/25 08:48:23;;;;;;;;;;;19.30;52.20;;;;;;5049531;28;19920;-58
2023/10/25 08:50:51;;;;;;;;;;;19.30;52.30;;;;;;5048880;28;19970;-58
2023/10/25 08:53:21;;;;;;;;;;;19.30;52.30;;;;;;5049244;28;19970;-58
2023/10/25 08:55:49;;;;;;;;;;;19.30;52.90;;;;;;5048690;28;19980;-60
2023/10/25 08:58:17;;;;;;;;;;;19.40;52.40;;;;;;5048133;28;19924;-58
2023/10/25 09:00:43;;;;;;;;;;;19.40;52.40;;;;;;5050046;28;19925;-58
2023/10/25 09:03:11;;;;;;;;;;;19.40;52.50;;;;;;5041270;28;19925;-58
2023/10/25 09:05:41;;;;;;;;;;;19.40;52.50;;;;;;5032981;28;19921;-57
2023/10/25 09:08:18;;;;;;;;;;;19.40;52.50;;;;;;5048312;28;20328;-58
2023/10/25 09:10:46;;;;;;;;;;;19.40;52.50;;;;;;5043053;28;20636;-57
2023/10/25 09:13:13;;;;;;;;;;;19.40;52.50;;;;;;5049405;28;19925;-58
2023/10/25 09:15:40;;;;;;;;;;;19.40;52.50;;;;;;5044766;28;20036;-57
2023/10/25 09:18:07;;;;;;;;;;;19.50;52.60;;;;;;5048596;28;20035;-58
2023/10/25 09:20:33;;;;;;;;;;;19.50;52.70;;;;;;5049009;28;20175;-57
2023/10/25 09:23:09;;;;;;;;;;;19.40;52.60;;;;;;5048806;28;19990;-57
2023/10/25 09:25:38;;;;;;;;;;;19.40;52.60;;;;;;5040851;28;20325;-57
2023/10/25 09:28:05;;;;;;;;;;;19.50;52.70;;;;;;5048681;28;19921;-59
2023/10/25 09:30:32;;;;;;;;;;;19.50;52.70;;;;;;5050854;28;19925;-57
2023/10/25 09:32:58;;;;;;;;;;;19.50;52.80;;;;;;5049354;28;19921;-58
2023/10/25 09:35:25;;;;;;;;;;;19.50;52.80;;;;;;5044159;28;19925;-57
2023/10/25 09:37:52;;;;;;;;;;;19.50;52.80;;;;;;5048322;28;19921;-58
2023/10/25 09:40:19;;;;;;;;;;;19.50;52.80;;;;;;5050124;28;19921;-58
2023/10/25 09:42:49;;;;;;;;;;;19.50;52.80;;;;;;5048504;28;19927;-57
2023/10/25 09:45:16;;;;;;;;;;;19.50;52.80;;;;;;5042088;28;19933;-57
2023/10/25 09:47:42;;;;;;;;;;;19.50;52.80;;;;;;5047794;28;19929;-57
2023/10/25 09:50:10;;;;;;;;;;;19.50;52.80;;;;;;5039851;28;19974;-57
2023/10/25 09:52:37;;;;;;;;;;;19.60;52.90;;;;;;5049140;28;19921;-56
2023/10/25 09:55:04;;;;;;;;;;;19.60;52.90;;;;;;5048409;28;19933;-58
2023/10/25 09:57:32;;;;;;;;;;;19.60;52.90;;;;;;5049949;28;19994;-57
2023/10/25 10:00:00;;;;;;;;;;;19.60;53.00;;;;;;5048392;28;19955;-59
2023/10/25 10:02:31;;;;;;;;;;;19.60;52.90;;;;;;5047607;28;19925;-58
2023/10/25 10:04:58;;;;;;;;;;;19.60;52.90;;;;;;5046102;28;19920;-58
2023/10/25 10:07:31;;;;;;;;;;;19.60;52.90;;;;;;5043034;28;19921;-59
2023/10/25 10:09:59;;;;;;;;;;;19.60;52.90;;;;;;5046535;28;19932;-59
2023/10/25 10:12:26;;;;;;;;;;;19.60;53.50;;;;;;5048937;28;19921;-60
2023/10/25 10:14:53;;;;;;;;;;;19.60;52.90;;;;;;5047270;28;19921;-59
2023/10/25 10:17:21;;;;;;;;;;;19.60;52.90;;;;;;5044990;28;19921;-57
2023/10/25 10:19:49;;;;;;;;;;;19.60;53.00;;;;;;5045874;28;20416;-61
2023/10/25 10:22:16;;;;;;;;;;;19.60;52.90;;;;;;5041899;28;19971;-57
2023/10/25 10:24:46;;;;;;;;;;;19.70;53.00;;;;;;5053306;28;19921;-58
2023/10/25 10:27:13;;;;;;;;;;;19.70;53.10;;;;;;5047458;28;19920;-58
2023/10/25 10:29:40;;;;;;;;;;;19.70;53.10;;;;;;5046465;28;19987;-57
2023/10/25 10:32:08;;;;;;;;;;;19.70;53.20;;;;;;5052449;28;19925;-57
2023/10/25 10:34:39;;;;;;;;;;;19.70;53.10;;;;;;5052520;28;19924;-57
2023/10/25 10:37:07;;;;;;;;;;;19.70;53.20;;;;;;5051846;28;19929;-57
2023/10/25 10:39:34;;;;;;;;;;;19.70;53.20;;;;;;5052431;28;19960;-56
2023/10/25 10:42:01;;;;;;;;;;;19.70;53.20;;;;;;5051871;28;19933;-57
2023/10/25 10:44:28;;;;;;;;;;;19.80;53.30;;;;;;5039299;28;19959;-57
2023/10/25 10:46:55;;;;;;;;;;;19.80;53.30;;;;;;5052045;28;19931;-60
2023/10/25 10:49:22;;;;;;;;;;;19.80;53.30;;;;;;5043134;28;19921;-63
2023/10/25 10:51:50;;;;;;;;;;;19.80;53.30;;;;;;5053019;28;19925;-62
2023/10/25 10:54:17;;;;;;;;;;;19.80;52.80;;;;;;5042099;28;19971;-61
2023/10/25 10:56:44;;;;;;;;;;;19.70;52.10;;;;;;5048517;28;19921;-61
2023/10/25 10:59:11;;;;;;;;;;;19.70;51.90;;;;;;5051910;28;19928;-60
2023/10/25 11:01:38;;;;;;;;;;;19.60;51.80;;;;;;5046117;28;19921;-61
2023/10/25 11:04:05;;;;;;;;;;;19.50;51.70;;;;;;5034427;28;20459;-58
2023/10/25 11:06:31;;;;;;;;;;;19.50;51.70;;;;;;5051805;28;19921;-57
2023/10/25 11:08:59;;;;;;;;;;;19.40;52.00;;;;;;5051332;28;19978;-58
2023/10/25 11:11:26;;;;;;;;;;;19.40;52.20;;;;;;5051421;28;19947;-57
2023/10/25 11:13:53;;;;;;;;;;;19.40;52.40;;;;;;5041655;28;19932;-57
2023/10/25 11:16:20;;;;;;;;;;;19.40;52.50;;;;;;5045420;28;19921;-56
2023/10/25 11:18:47;;;;;;;;;;;19.40;52.60;;;;;;5052606;28;19920;-57
2023/10/25 11:21:14;;;;;;;;;;;19.50;52.80;;;;;;5031014;28;19921;-57
2023/10/25 11:23:41;;;;;;;;;;;19.50;52.80;;;;;;5045897;28;20020;-57
2023/10/25 11:26:09;;;;;;;;;;;19.50;52.90;;;;;;5046105;28;19936;-58
2023/10/25 11:28:36;;;;;;;;;;;19.50;52.90;;;;;;5050889;28;19920;-57
2023/10/25 11:31:03;;;;;;;;;;;19.50;52.90;;;;;;5049794;28;19927;-57
2023/10/25 11:33:30;;;;;;;;;;;19.50;52.90;;;;;;5046177;28;19944;-57
2023/10/25 11:35:56;;;;;;;;;;;19.60;53.10;;;;;;5047845;28;19925;-57
2023/10/25 11:38:24;;;;;;;;;;;19.60;53.10;;;;;;5050991;28;19995;-57
2023/10/25 11:40:51;;;;;;;;;;;19.60;53.10;;;;;;5050018;28;19924;-57
2023/10/25 11:43:19;;;;;;;;;;;19.60;53.10;;;;;;5050490;28;19924;-58
2023/10/25 11:45:46;;;;;;;;;;;19.60;53.10;;;;;;5043529;28;19940;-58
2023/10/25 11:48:13;;;;;;;;;;;19.70;53.20;;;;;;5050641;28;19971;-57
2023/10/25 11:50:43;;;;;;;;;;;19.70;53.20;;;;;;5051446;28;20011;-59
2023/10/25 11:53:13;;;;;;;;;;;19.70;53.30;;;;;;5049177;28;19925;-58
2023/10/25 11:55:40;;;;;;;;;;;19.70;53.30;;;;;;5049993;28;19921;-57
2023/10/25 11:58:07;;;;;;;;;;;19.70;53.20;;;;;;5041381;28;19924;-58
2023/10/25 12:00:35;;;;;;;;;;;19.70;53.30;;;;;;5040270;28;19925;-58
2023/10/25 12:03:02;;;;;;;;;;;19.70;53.30;;;;;;5046565;28;19925;-59
2023/10/25 12:05:29;;;;;;;;;;;19.80;53.40;;;;;;5042368;28;19922;-58
2023/10/25 12:07:55;;;;;;;;;;;19.80;53.40;;;;;;5048180;28;19924;-58
2023/10/25 12:10:23;;;;;;;;;;;19.80;53.40;;;;;;5045218;28;19927;-57
2023/10/25 12:12:50;;;;;;;;;;;19.80;54.00;;;;;;5050287;28;19921;-58
2023/10/25 12:15:17;;;;;;;;;;;19.80;53.50;;;;;;5046378;28;19933;-57
2023/10/25 12:17:45;;;;;;;;;;;19.80;53.40;;;;;;5050231;28;19920;-59
2023/10/25 12:20:12;;;;;;;;;;;19.80;53.50;;;;;;5048815;28;19924;-58
2023/10/25 12:22:39;;;;;;;;;;;19.80;53.50;;;;;;5050407;28;19943;-58
2023/10/25 12:25:06;;;;;;;;;;;19.90;53.50;;;;;;5047891;28;19928;-57
2023/10/25 12:27:33;;;;;;;;;;;19.90;53.60;;;;;;5045957;28;19921;-58
2023/10/25 12:30:00;;;;;;;;;;;19.90;53.60;;;;;;5050242;28;19966;-57
2023/10/25 12:32:26;;;;;;;;;;;19.90;53.50;;;;;;5049371;28;19929;-58
2023/10/25 12:34:55;;;;;;;;;;;19.90;53.60;;;;;;5049056;28;19925;-56
2023/10/25 12:37:22;;;;;;;;;;;19.90;53.60;;;;;;5048979;28;19921;-59
2023/10/25 12:39:48;;;;;;;;;;;19.90;53.60;;;;;;5044316;28;19956;-58
2023/10/25 12:42:15;;;;;;;;;;;19.90;53.60;;;;;;5049595;28;19929;-57
2023/10/25 12:44:42;;;;;;;;;;;20.00;53.80;;;;;;5049286;28;19925;-57
2023/10/25 12:47:09;;;;;;;;;;;19.90;53.60;;;;;;5045808;28;19940;-57
2023/10/25 12:49:35;;;;;;;;;;;19.90;53.60;;;;;;5048996;28;19932;-57
2023/10/25 12:52:05;;;;;;;;;;;19.90;53.60;;;;;;5043067;28;19982;-58
2023/10/25 12:54:31;;;;;;;;;;;20.00;53.70;;;;;;5054237;28;19964;-58
2023/10/25 12:56:58;;;;;;;;;;;20.00;53.80;;;;;;5047768;28;19982;-58
2023/10/25 12:59:25;;;;;;;;;;;20.00;53.80;;;;;;5044549;28;19934;-58
2023/10/25 13:01:51;;;;;;;;;;;20.00;53.80;;;;;;5049587;28;19982;-58
2023/10/25 13:04:18;;;;;;;;;;;20.00;53.80;;;;;;5049726;28;19932;-57
2023/10/25 13:06:45;;;;;;;;;;;20.00;53.80;;;;;;5043033;28;19925;-57
2023/10/25 13:09:13;;;;;;;;;;;20.00;53.80;;;;;;5049912;28;19936;-58
2023/10/25 13:11:40;;;;;;;;;;;20.00;53.80;;;;;;5048525;28;19982;-57
2023/10/25 13:14:06;;;;;;;;;;;20.00;53.80;;;;;;5048677;28;19920;-58
2023/10/25 13:16:33;;;;;;;;;;;20.00;53.80;;;;;;5044300;28;19925;-57
2023/10/25 13:19:01;;;;;;;;;;;20.00;53.80;;;;;;5047571;28;19924;-58
2023/10/25 13:21:28;;;;;;;;;;;20.00;53.80;;;;;;5048741;28;19927;-57
2023/10/25 13:23:54;;;;;;;;;;;20.00;53.80;;;;;;5047958;28;19921;-58
2023/10/25 13:26:23;;;;;;;;;;;20.00;53.80;;;;;;5043872;28;19925;-57
2023/10/25 13:28:50;;;;;;;;;;;20.00;53.80;;;;;;5048452;28;19921;-57
2023/10/25 13:31:16;;;;;;;;;;;20.00;53.80;;;;;;5046374;28;19920;-57
2023/10/25 13:33:43;;;;;;;;;;;20.00;53.80;;;;;;5045411;28;19925;-57
2023/10/25 13:36:10;;;;;;;;;;;20.00;53.80;;;;;;5046671;28;20585;-57
2023/10/25 13:38:37;;;;;;;;;;;20.00;53.80;;;;;;5050548;28;20322;-58
2023/10/25 13:41:03;;;;;;;;;;;20.00;53.80;;;;;;5048056;28;19924;-58
2023/10/25 13:43:32;;;;;;;;;;;20.00;53.80;;;;;;5050162;28;19994;-58
2023/10/25 13:45:58;;;;;;;;;;;20.00;54.00;;;;;;5042867;28;20008;-57
2023/10/25 13:48:25;;;;;;;;;;;20.00;53.80;;;;;;5050270;28;19924;-57
2023/10/25 13:50:52;;;;;;;;;;;20.00;53.80;;;;;;5048102;28;19924;-58
2023/10/25 13:53:19;;;;;;;;;;;20.10;53.80;;;;;;5041503;28;19979;-58
2023/10/25 13:55:45;;;;;;;;;;;20.00;53.80;;;;;;5044242;28;19925;-57
2023/10/25 13:58:13;;;;;;;;;;;20.00;53.80;;;;;;5052374;28;20020;-58
2023/10/25 14:00:41;;;;;;;;;;;20.10;53.80;;;;;;5053571;28;19928;-57
2023/10/25 14:03:07;;;;;;;;;;;20.00;53.80;;;;;;5049046;28;19925;-59
2023/10/25 14:05:39;;;;;;;;;;;20.00;53.80;;;;;;5049081;28;20248;-56
2023/10/25 14:08:06;;;;;;;;;;;20.10;53.90;;;;;;5049998;28;20016;-58
2023/10/25 14:10:33;;;;;;;;;;;20.10;53.90;;;;;;5048755;28;19921;-57
2023/10/25 14:13:00;;;;;;;;;;;20.10;53.90;;;;;;5052504;28;19928;-57
2023/10/25 14:15:26;;;;;;;;;;;20.10;53.90;;;;;;5052948;28;19921;-58